createdAt,value
2019-02-26T00:01:16.424Z,19.63
2019-02-26T00:03:41.292Z,19.70
2019-02-26T00:06:08.718Z,19.00
2019-02-26T00:08:36.178Z,20.17
2019-02-26T00:11:04.426Z,19.37
2019-02-26T00:13:31.954Z,19.53
2019-02-26T00:16:03.246Z,18.13
2019-02-26T00:18:25.877Z,17.43
2019-02-26T00:20:54.140Z,19.27
2019-02-26T00:23:21.622Z,18.93
2019-02-26T00:25:48.117Z,19.50
2019-02-26T00:28:17.527Z,20.70
2019-02-26T00:30:42.945Z,20.50
2019-02-26T00:33:10.371Z,20.07
2019-02-26T00:35:39.378Z,20.40
2019-02-26T00:38:05.213Z,20.07
2019-02-26T00:40:34.395Z,19.13
2019-02-26T00:43:02.049Z,20.50
2019-02-26T00:45:29.490Z,20.53
2019-02-26T00:47:54.939Z,20.73
2019-02-26T00:50:22.337Z,18.03
2019-02-26T00:52:49.751Z,17.83
2019-02-26T00:55:17.201Z,18.87
2019-02-26T00:57:44.612Z,17.50
2019-02-26T01:00:14.698Z,17.87
2019-02-26T01:02:42.101Z,17.00
2019-02-26T01:05:11.305Z,17.47
2019-02-26T01:07:36.941Z,17.53
2019-02-26T01:10:04.392Z,17.63
2019-02-26T01:12:32.947Z,18.23
2019-02-26T01:14:59.268Z,18.27
2019-02-26T01:17:26.694Z,18.23
2019-02-26T01:19:54.437Z,19.17
2019-02-26T01:22:21.525Z,18.57
2019-02-26T01:24:49.779Z,19.70
2019-02-26T01:27:16.395Z,19.57
2019-02-26T01:29:44.588Z,17.97
2019-02-26T01:32:13.282Z,17.67
2019-02-26T01:34:40.401Z,18.67
2019-02-26T01:37:07.698Z,18.90
2019-02-26T01:39:35.634Z,18.60
2019-02-26T01:42:00.967Z,20.70
2019-02-26T01:44:32.296Z,17.87
2019-02-26T01:46:57.803Z,19.73
2019-02-26T01:49:23.757Z,20.23
2019-02-26T01:51:51.861Z,18.87
2019-02-26T01:54:18.081Z,20.00
2019-02-26T01:56:45.484Z,18.57
2019-02-26T01:59:12.935Z,19.10
2019-02-26T02:01:44.105Z,19.17
2019-02-26T02:04:08.795Z,18.60
2019-02-26T02:06:36.904Z,20.03
2019-02-26T02:09:02.622Z,21.77
2019-02-26T02:11:31.191Z,22.53
2019-02-26T02:13:57.468Z,20.40
2019-02-26T02:16:26.829Z,20.80
2019-02-26T02:18:53.559Z,22.40
2019-02-26T02:21:19.751Z,20.80
2019-02-26T02:23:49.203Z,20.97
2019-02-26T02:26:15.654Z,22.73
2019-02-26T02:28:42.037Z,22.37
2019-02-26T02:31:09.478Z,21.40
2019-02-26T02:33:37.537Z,20.17
2019-02-26T02:36:04.321Z,20.80
2019-02-26T02:38:36.500Z,22.20
2019-02-26T02:40:59.191Z,20.93
2019-02-26T02:43:26.616Z,19.60
2019-02-26T02:45:56.404Z,18.73
2019-02-26T02:48:21.454Z,20.07
2019-02-26T02:50:48.864Z,20.07
2019-02-26T02:53:18.605Z,19.23
2019-02-26T02:55:46.405Z,21.47
2019-02-26T02:58:13.063Z,20.13
2019-02-26T03:00:38.578Z,20.83
2019-02-26T03:03:05.999Z,22.10
2019-02-26T03:05:35.114Z,21.13
2019-02-26T03:08:00.863Z,21.50
2019-02-26T03:10:30.774Z,23.80
2019-02-26T03:12:57.764Z,21.93
2019-02-26T03:15:24.606Z,21.60
2019-02-26T03:17:50.568Z,22.73
2019-02-26T03:20:18.000Z,22.20
2019-02-26T03:22:48.823Z,20.57
2019-02-26T03:25:17.672Z,20.97
2019-02-26T03:27:43.196Z,22.20
2019-02-26T03:30:26.417Z,20.30
2019-02-26T03:32:45.971Z,20.60
2019-02-26T03:35:13.334Z,20.83
2019-02-26T03:37:38.596Z,20.03
2019-02-26T03:40:08.150Z,18.77
2019-02-26T03:42:35.874Z,18.23
2019-02-26T03:45:02.965Z,18.67
2019-02-26T03:47:28.362Z,18.17
2019-02-26T03:49:55.793Z,19.03
2019-02-26T03:52:23.234Z,16.73
2019-02-26T03:54:50.785Z,17.67
2019-02-26T03:57:20.086Z,18.23
2019-02-26T03:59:45.490Z,19.10
2019-02-26T04:02:15.315Z,17.50
2019-02-26T04:04:40.348Z,14.70
2019-02-26T04:07:10.510Z,16.10
2019-02-26T04:09:39.111Z,17.70
2019-02-26T04:12:02.622Z,20.40
2019-02-26T04:14:30.710Z,21.30
2019-02-26T04:16:58.673Z,20.27
2019-02-26T04:19:26.786Z,18.50
2019-02-26T04:22:26.489Z,17.73
2019-02-26T04:24:55.040Z,16.67
2019-02-26T04:27:41.216Z,17.60
2019-02-26T04:30:21.135Z,18.07
2019-02-26T04:33:09.103Z,16.40
2019-02-26T04:35:34.493Z,17.23
2019-02-26T04:38:10.913Z,15.33
2019-02-26T04:40:40.532Z,16.13
2019-02-26T04:43:12.914Z,15.67
2019-02-26T04:45:38.899Z,16.17
2019-02-26T04:48:06.341Z,14.80
2019-02-26T04:50:35.729Z,15.83
2019-02-26T04:53:04.461Z,14.70
2019-02-26T04:55:29.734Z,14.10
2019-02-26T04:57:56.103Z,14.10
2019-02-26T05:00:26.183Z,13.90
2019-02-26T05:02:50.945Z,13.43
2019-02-26T05:05:18.367Z,14.23
2019-02-26T05:07:47.067Z,14.23
2019-02-26T05:10:13.234Z,14.00
2019-02-26T05:12:40.676Z,12.50
2019-02-26T05:15:11.504Z,13.70
2019-02-26T05:17:35.529Z,12.87
2019-02-26T05:20:04.259Z,12.00
2019-02-26T05:22:33.121Z,12.37
2019-02-26T05:24:57.833Z,12.03
2019-02-26T05:27:25.244Z,13.77
2019-02-26T05:29:54.774Z,14.37
2019-02-26T05:32:21.835Z,14.40
2019-02-26T05:34:50.657Z,13.63
2019-02-26T05:37:14.967Z,13.73
2019-02-26T05:39:43.176Z,14.70
2019-02-26T05:42:29.486Z,14.33
2019-02-26T05:44:59.937Z,16.93
2019-02-26T05:47:26.591Z,18.17
2019-02-26T05:49:51.773Z,16.40
2019-02-26T05:52:21.425Z,14.90
2019-02-26T05:54:46.615Z,15.00
2019-02-26T05:57:25.948Z,13.77
2019-02-26T05:59:42.075Z,15.20
2019-02-26T06:02:10.693Z,15.73
2019-02-26T06:04:38.399Z,15.80
2019-02-26T06:07:04.750Z,18.87
2019-02-26T06:09:33.854Z,17.57
2019-02-26T06:11:58.613Z,20.50
2019-02-26T06:14:27.652Z,18.77
2019-02-26T06:16:55.748Z,19.17
2019-02-26T06:19:20.887Z,17.93
2019-02-26T06:21:49.751Z,17.93
2019-02-26T06:24:15.722Z,19.37
2019-02-26T06:26:45.376Z,20.27
2019-02-26T06:29:10.591Z,17.23
2019-02-26T06:31:40.103Z,17.30
2019-02-26T06:34:06.461Z,16.70
2019-02-26T06:36:32.871Z,16.53
2019-02-26T06:39:01.554Z,17.50
2019-02-26T06:41:27.746Z,18.10
2019-02-26T06:43:55.246Z,19.73
2019-02-26T06:46:22.583Z,16.93
2019-02-26T06:48:50.021Z,17.70
2019-02-26T06:51:19.000Z,16.67
2019-02-26T06:53:47.104Z,15.97
2019-02-26T06:56:12.308Z,16.80
2019-02-26T06:58:41.144Z,16.83
2019-02-26T07:01:07.660Z,17.00
2019-02-26T07:03:34.573Z,17.93
2019-02-26T07:06:04.762Z,18.97
2019-02-26T07:08:31.031Z,16.07
2019-02-26T07:10:56.853Z,17.50
2019-02-26T07:13:24.273Z,20.23
2019-02-26T07:15:51.729Z,21.57
2019-02-26T07:18:19.731Z,21.20
2019-02-26T07:20:49.613Z,20.10
2019-02-26T07:23:15.535Z,19.93
2019-02-26T07:25:43.818Z,20.77
2019-02-26T07:28:08.871Z,19.10
2019-02-26T07:30:37.566Z,19.40
2019-02-26T07:33:05.344Z,19.50
2019-02-26T07:35:32.723Z,19.07
2019-02-26T07:37:59.499Z,17.57
2019-02-26T07:40:27.795Z,17.63
2019-02-26T07:42:53.493Z,18.00
2019-02-26T07:45:22.899Z,18.80
2019-02-26T07:47:49.151Z,21.83
2019-02-26T07:50:17.337Z,22.93
2019-02-26T07:52:43.201Z,18.13
2019-02-26T07:55:12.167Z,18.40
2019-02-26T07:57:38.048Z,18.50
2019-02-26T08:00:08.304Z,18.77
2019-02-26T08:02:37.296Z,17.20
2019-02-26T08:05:03.248Z,17.90
2019-02-26T08:07:30.827Z,16.83
2019-02-26T08:09:58.112Z,17.67
2019-02-26T08:12:25.531Z,18.13
2019-02-26T08:14:52.949Z,17.13
2019-02-26T08:17:20.400Z,16.47
2019-02-26T08:19:49.369Z,15.37
2019-02-26T08:22:15.259Z,15.37
2019-02-26T08:24:42.687Z,15.53
2019-02-26T08:27:11.585Z,17.13
2019-02-26T08:29:37.512Z,17.70
2019-02-26T08:32:04.919Z,18.70
2019-02-26T08:34:32.346Z,17.10
2019-02-26T08:36:59.742Z,17.43
2019-02-26T08:39:27.177Z,16.27
2019-02-26T08:41:57.107Z,15.63
2019-02-26T08:44:24.545Z,14.60
2019-02-26T08:46:51.949Z,13.83
2019-02-26T08:49:20.810Z,13.80
2019-02-26T08:51:46.807Z,13.97
2019-02-26T08:54:20.509Z,13.30
2019-02-26T08:56:41.675Z,13.90
2019-02-26T08:59:09.065Z,13.33
2019-02-26T09:01:36.469Z,12.80
2019-02-26T09:04:03.908Z,12.53
2019-02-26T09:06:31.322Z,11.93
2019-02-26T09:09:00.177Z,13.17
2019-02-26T09:11:28.310Z,13.30
2019-02-26T09:13:53.566Z,13.13
2019-02-26T09:16:22.304Z,12.33
2019-02-26T09:18:48.429Z,11.60
2019-02-26T09:21:17.865Z,11.77
2019-02-26T09:23:47.457Z,11.70
2019-02-26T09:26:10.730Z,11.03
2019-02-26T09:28:38.153Z,11.80
2019-02-26T09:31:06.798Z,10.73
2019-02-26T09:33:34.995Z,10.27
2019-02-26T09:36:00.435Z,11.37
2019-02-26T09:38:27.878Z,10.63
2019-02-26T09:40:56.992Z,10.07
2019-02-26T09:43:24.434Z,10.47
2019-02-26T09:45:50.593Z,9.60
2019-02-26T09:48:19.316Z,9.43
2019-02-26T09:50:46.427Z,9.37
2019-02-26T09:53:12.388Z,8.07
2019-02-26T09:55:39.816Z,9.10
2019-02-26T09:58:07.233Z,9.03
2019-02-26T10:00:34.655Z,8.53
2019-02-26T10:03:03.039Z,9.67
2019-02-26T10:05:29.507Z,10.10
2019-02-26T10:07:59.462Z,8.53
2019-02-26T10:10:27.526Z,8.80
2019-02-26T10:12:53.769Z,9.13
2019-02-26T10:15:19.165Z,8.13
2019-02-26T10:17:46.574Z,7.80
2019-02-26T10:20:20.735Z,7.40
2019-02-26T10:22:47.177Z,7.07
2019-02-26T10:25:15.335Z,7.00
2019-02-26T10:27:43.124Z,6.30
2019-02-26T10:30:11.234Z,6.47
2019-02-26T10:32:36.877Z,6.90
2019-02-26T10:35:04.609Z,6.37
2019-02-26T10:37:33.683Z,5.30
2019-02-26T10:39:59.121Z,5.70
2019-02-26T10:42:26.545Z,5.60
2019-02-26T10:44:53.937Z,5.00
2019-02-26T10:47:22.822Z,6.10
2019-02-26T10:49:49.783Z,5.93
2019-02-26T10:52:17.516Z,5.90
2019-02-26T10:54:46.459Z,5.70
2019-02-26T10:57:14.104Z,5.50
2019-02-26T10:59:38.408Z,5.90
2019-02-26T11:02:05.839Z,5.60
2019-02-26T11:04:35.591Z,5.70
2019-02-26T11:07:04.161Z,5.70
2019-02-26T11:09:29.885Z,6.00
2019-02-26T11:11:57.844Z,6.57
2019-02-26T11:14:22.931Z,6.00
2019-02-26T11:16:50.330Z,5.60
2019-02-26T11:19:17.748Z,5.73
2019-02-26T11:21:47.328Z,5.30
2019-02-26T11:24:12.558Z,5.60
2019-02-26T11:26:40.962Z,5.60
2019-02-26T11:29:07.410Z,6.37
2019-02-26T11:31:36.570Z,5.80
2019-02-26T11:34:04.048Z,5.97
2019-02-26T11:36:31.288Z,5.60
2019-02-26T11:38:59.018Z,5.10
2019-02-26T11:41:26.361Z,4.60
2019-02-26T11:43:51.941Z,4.40
2019-02-26T11:46:20.095Z,4.60
2019-02-26T11:48:47.605Z,5.20
2019-02-26T11:51:16.874Z,4.70
2019-02-26T11:53:43.483Z,4.70
2019-02-26T11:56:09.040Z,4.30
2019-02-26T11:58:36.444Z,4.40
2019-02-26T12:01:03.868Z,4.33
2019-02-26T12:03:34.133Z,5.77
2019-02-26T12:06:01.238Z,5.30
2019-02-26T12:08:26.120Z,5.00
2019-02-26T12:10:57.645Z,6.60
2019-02-26T12:13:22.345Z,5.20
2019-02-26T12:15:48.351Z,4.70
2019-02-26T12:18:17.912Z,5.33
2019-02-26T12:20:45.986Z,5.03
2019-02-26T12:23:12.967Z,4.80
2019-02-26T12:25:38.508Z,4.37
2019-02-26T12:28:08.237Z,3.90
2019-02-26T12:30:35.024Z,4.17
2019-02-26T12:33:00.870Z,4.00
2019-02-26T12:35:29.699Z,4.80
2019-02-26T12:37:59.367Z,5.00
2019-02-26T12:40:25.483Z,5.57
2019-02-26T12:42:51.553Z,4.80
2019-02-26T12:45:20.931Z,6.33
2019-02-26T12:47:52.107Z,3.63
2019-02-26T12:50:18.571Z,4.00
2019-02-26T12:52:47.554Z,3.27
2019-02-26T12:55:13.557Z,3.60
2019-02-26T12:57:43.286Z,4.30
2019-02-26T13:00:16.595Z,4.10
2019-02-26T13:02:43.795Z,4.07
2019-02-26T13:05:13.462Z,3.30
2019-02-26T13:07:38.180Z,5.13
2019-02-26T13:10:05.596Z,3.37
2019-02-26T13:12:32.986Z,3.43
2019-02-26T13:15:04.769Z,3.37
2019-02-26T13:17:31.546Z,3.40
2019-02-26T13:19:58.950Z,2.97
2019-02-26T13:22:22.604Z,3.07
2019-02-26T13:24:50.053Z,3.13
2019-02-26T13:27:17.809Z,3.07
2019-02-26T13:29:53.928Z,3.43
2019-02-26T13:32:13.673Z,3.33
2019-02-26T13:34:39.670Z,3.60
2019-02-26T13:37:07.093Z,4.10
2019-02-26T13:39:38.561Z,3.60
2019-02-26T13:42:05.695Z,3.90
2019-02-26T13:44:29.346Z,4.10
2019-02-26T13:46:56.738Z,3.60
2019-02-26T13:49:24.165Z,4.20
2019-02-26T13:51:51.564Z,4.23
2019-02-26T13:54:19.004Z,3.50
2019-02-26T13:56:46.409Z,4.20
2019-02-26T13:59:13.810Z,3.67
2019-02-26T14:01:41.246Z,3.70
2019-02-26T14:04:08.633Z,3.50
2019-02-26T14:06:36.066Z,3.93
2019-02-26T14:09:03.469Z,4.17
2019-02-26T14:11:30.913Z,4.27
2019-02-26T14:13:58.291Z,4.40
2019-02-26T14:16:25.720Z,4.27
2019-02-26T14:18:53.119Z,4.60
2019-02-26T14:21:20.522Z,3.10
2019-02-26T14:23:47.940Z,4.23
2019-02-26T14:26:15.344Z,4.13
2019-02-26T14:28:42.771Z,4.80
2019-02-26T14:31:10.187Z,4.47
2019-02-26T14:33:37.605Z,5.03
2019-02-26T14:36:05.014Z,5.07
2019-02-26T14:38:33.713Z,5.50
2019-02-26T14:41:02.342Z,5.40
2019-02-26T14:43:28.545Z,5.87
2019-02-26T14:45:55.977Z,5.00
2019-02-26T14:48:23.401Z,5.77
2019-02-26T14:50:50.822Z,6.13
2019-02-26T14:53:18.211Z,5.50
2019-02-26T14:55:45.630Z,5.80
2019-02-26T14:58:13.026Z,5.97
2019-02-26T15:00:40.425Z,6.03
2019-02-26T15:03:07.850Z,5.70
2019-02-26T15:05:35.275Z,6.23
2019-02-26T15:08:02.716Z,5.93
2019-02-26T15:10:30.126Z,5.77
2019-02-26T15:12:57.540Z,7.20
2019-02-26T15:15:24.932Z,6.00
2019-02-26T15:17:52.368Z,6.57
2019-02-26T15:20:22.737Z,6.53
2019-02-26T15:22:50.190Z,6.93
2019-02-26T15:25:23.146Z,5.60
2019-02-26T15:27:50.566Z,7.27
2019-02-26T15:30:18.015Z,6.00
2019-02-26T15:32:45.422Z,5.47
2019-02-26T15:35:12.840Z,5.40
2019-02-26T15:37:40.245Z,4.90
2019-02-26T15:40:10.369Z,4.37
2019-02-26T15:42:37.737Z,4.17
2019-02-26T15:45:05.156Z,3.70
2019-02-26T15:47:32.712Z,3.77
2019-02-26T15:50:00.145Z,3.80
2019-02-26T15:52:27.488Z,3.63
2019-02-26T15:54:57.515Z,3.60
2019-02-26T15:57:22.288Z,3.20
2019-02-26T15:59:51.279Z,4.00
2019-02-26T16:02:17.172Z,3.50
2019-02-26T16:04:44.565Z,3.47
2019-02-26T16:07:11.971Z,4.00
2019-02-26T16:09:39.400Z,3.93
2019-02-26T16:12:06.809Z,4.00
2019-02-26T16:14:34.235Z,4.50
2019-02-26T16:17:01.649Z,4.07
2019-02-26T16:19:29.081Z,4.27
2019-02-26T16:21:56.492Z,4.27
2019-02-26T16:24:23.908Z,4.60
2019-02-26T16:26:51.362Z,4.60
2019-02-26T16:29:18.826Z,4.50
2019-02-26T16:31:46.228Z,4.60
2019-02-26T16:34:13.643Z,4.57
2019-02-26T16:36:41.110Z,6.00
2019-02-26T16:39:08.521Z,5.57
2019-02-26T16:41:38.299Z,7.03
2019-02-26T16:44:03.353Z,5.80
2019-02-26T16:46:30.810Z,5.80
2019-02-26T16:48:58.217Z,5.60
2019-02-26T16:51:25.618Z,5.80
2019-02-26T16:53:53.047Z,6.13
2019-02-26T16:56:21.991Z,6.40
2019-02-26T16:58:47.892Z,6.37
2019-02-26T17:01:15.378Z,7.03
2019-02-26T17:03:42.826Z,8.03
2019-02-26T17:06:10.247Z,8.20
2019-02-26T17:08:37.648Z,6.90
2019-02-26T17:11:05.085Z,6.47
2019-02-26T17:13:32.510Z,7.00
2019-02-26T17:16:00.222Z,6.87
2019-02-26T17:18:27.364Z,7.03
2019-02-26T17:20:56.735Z,7.53
2019-02-26T17:23:22.182Z,8.03
2019-02-26T17:25:49.716Z,7.63
2019-02-26T17:28:17.107Z,7.20
2019-02-26T17:30:44.541Z,7.70
2019-02-26T17:33:14.471Z,7.53
2019-02-26T17:35:39.393Z,7.87
2019-02-26T17:38:06.809Z,7.57
2019-02-26T17:40:36.618Z,7.50
2019-02-26T17:43:01.661Z,7.50
2019-02-26T17:45:32.209Z,7.17
2019-02-26T17:47:59.702Z,7.87
2019-02-26T17:50:27.050Z,7.70
2019-02-26T17:52:54.676Z,7.00
2019-02-26T17:55:21.895Z,6.60
2019-02-26T17:57:49.321Z,6.93
2019-02-26T18:00:16.758Z,6.73
2019-02-26T18:02:44.189Z,7.40
2019-02-26T18:05:11.598Z,6.80
2019-02-26T18:07:39.035Z,7.53
2019-02-26T18:10:12.556Z,7.57
2019-02-26T18:12:36.292Z,7.67
2019-02-26T18:15:03.714Z,8.00
2019-02-26T18:17:31.138Z,7.50
2019-02-26T18:19:58.534Z,7.93
2019-02-26T18:22:25.959Z,7.87
2019-02-26T18:24:53.373Z,7.77
2019-02-26T18:27:20.826Z,7.93
2019-02-26T18:29:48.247Z,7.97
2019-02-26T18:32:15.650Z,8.23
2019-02-26T18:34:43.088Z,8.53
2019-02-26T18:37:10.521Z,9.50
2019-02-26T18:39:37.947Z,9.47
2019-02-26T18:42:07.565Z,9.73
2019-02-26T18:44:32.787Z,9.37
2019-02-26T18:47:00.217Z,10.00
2019-02-26T18:49:27.660Z,9.90
2019-02-26T18:51:55.077Z,9.53
2019-02-26T18:54:22.505Z,9.83
2019-02-26T18:56:49.908Z,10.97
2019-02-26T18:59:21.451Z,11.10
2019-02-26T19:01:44.853Z,12.00
2019-02-26T19:04:13.945Z,11.97
2019-02-26T19:06:39.697Z,13.53
2019-02-26T19:09:07.186Z,14.23
2019-02-26T19:11:34.639Z,14.37
2019-02-26T19:14:02.243Z,13.27
2019-02-26T19:16:30.078Z,13.73
2019-02-26T19:18:57.514Z,14.43
2019-02-26T19:21:24.966Z,15.47
2019-02-26T19:23:52.371Z,16.20
2019-02-26T19:26:19.845Z,14.40
2019-02-26T19:28:47.248Z,14.20
2019-02-26T19:31:14.729Z,14.37
2019-02-26T19:33:42.177Z,14.63
2019-02-26T19:36:10.674Z,14.83
2019-02-26T19:38:36.975Z,16.40
2019-02-26T19:41:04.407Z,15.53
2019-02-26T19:43:31.865Z,17.60
2019-02-26T19:45:59.284Z,16.87
2019-02-26T19:48:30.446Z,15.83
2019-02-26T19:50:54.343Z,15.43
2019-02-26T19:53:21.839Z,18.97
2019-02-26T19:55:50.046Z,17.43
2019-02-26T19:58:17.440Z,17.20
2019-02-26T20:00:44.970Z,17.07
2019-02-26T20:03:12.426Z,16.87
2019-02-26T20:05:41.249Z,17.03
2019-02-26T20:08:07.378Z,16.47
2019-02-26T20:10:34.884Z,13.80
2019-02-26T20:13:04.031Z,13.57
2019-02-26T20:15:30.449Z,13.07
2019-02-26T20:17:57.260Z,15.27
2019-02-26T20:20:24.822Z,15.47
2019-02-26T20:22:52.263Z,17.57
2019-02-26T20:25:19.670Z,17.37
2019-02-26T20:27:47.278Z,15.30
2019-02-26T20:30:23.790Z,17.03
2019-02-26T20:32:51.220Z,16.77
2019-02-26T20:35:18.723Z,16.17
2019-02-26T20:37:46.158Z,16.77
2019-02-26T20:40:19.331Z,16.40
2019-02-26T20:42:46.763Z,16.33
2019-02-26T20:45:17.832Z,16.80
2019-02-26T20:47:41.649Z,17.30
2019-02-26T20:50:09.156Z,16.23
2019-02-26T20:52:36.573Z,17.00
2019-02-26T20:55:04.075Z,16.27
2019-02-26T20:57:31.528Z,17.07
2019-02-26T20:59:59.064Z,16.10
2019-02-26T21:02:26.479Z,16.90
2019-02-26T21:04:53.903Z,17.30
2019-02-26T21:07:21.837Z,16.50
2019-02-26T21:09:48.785Z,17.33
2019-02-26T21:12:16.245Z,17.63
2019-02-26T21:14:43.675Z,17.60
2019-02-26T21:17:11.131Z,17.73
2019-02-26T21:19:38.564Z,16.47
2019-02-26T21:22:06.015Z,16.27
2019-02-26T21:24:34.655Z,16.30
2019-02-26T21:27:00.869Z,17.80
2019-02-26T21:29:28.317Z,16.77
2019-02-26T21:31:55.739Z,16.67
2019-02-26T21:34:23.198Z,16.07
2019-02-26T21:36:50.620Z,15.03
2019-02-26T21:39:18.030Z,16.47
2019-02-26T21:41:45.487Z,17.80
2019-02-26T21:44:12.923Z,16.40
2019-02-26T21:46:40.361Z,16.00
2019-02-26T21:49:09.941Z,15.60
2019-02-26T21:51:35.204Z,16.17
2019-02-26T21:54:02.671Z,15.60
2019-02-26T21:56:30.117Z,15.53
2019-02-26T21:58:59.858Z,15.67
2019-02-26T22:01:24.973Z,15.60
2019-02-26T22:03:52.447Z,15.03
2019-02-26T22:06:19.883Z,15.97
2019-02-26T22:08:47.297Z,15.33
2019-02-26T22:11:15.789Z,16.63
2019-02-26T22:13:42.598Z,15.57
2019-02-26T22:16:10.003Z,15.93
2019-02-26T22:18:37.438Z,15.87
2019-02-26T22:21:04.887Z,16.33
2019-02-26T22:23:34.263Z,15.10
2019-02-26T22:25:59.730Z,16.00
2019-02-26T22:28:27.154Z,15.83
2019-02-26T22:30:55.985Z,14.40
2019-02-26T22:33:21.987Z,15.10
2019-02-26T22:35:49.397Z,15.73
2019-02-26T22:38:16.825Z,16.63
2019-02-26T22:40:44.255Z,15.77
2019-02-26T22:43:13.794Z,17.27
2019-02-26T22:45:39.121Z,17.17
2019-02-26T22:48:08.601Z,16.50
2019-02-26T22:50:33.949Z,16.27
2019-02-26T22:53:03.789Z,16.50
2019-02-26T22:55:28.804Z,17.50
2019-02-26T22:57:56.208Z,16.77
2019-02-26T23:00:53.998Z,17.80
2019-02-26T23:03:21.392Z,15.73
2019-02-26T23:05:48.848Z,16.53
2019-02-26T23:08:16.273Z,17.33
2019-02-26T23:10:43.704Z,15.30
2019-02-26T23:13:11.142Z,15.53
2019-02-26T23:15:38.570Z,16.10
2019-02-26T23:18:06.020Z,17.17
2019-02-26T23:20:33.431Z,17.83
2019-02-26T23:23:00.851Z,17.20
2019-02-26T23:25:28.260Z,18.27
2019-02-26T23:27:55.694Z,20.40
2019-02-26T23:30:24.961Z,17.00
2019-02-26T23:32:50.542Z,17.73
2019-02-26T23:35:17.945Z,18.30
2019-02-26T23:37:45.364Z,18.03
2019-02-26T23:40:14.722Z,19.50
2019-02-26T23:42:42.140Z,17.97
2019-02-26T23:45:09.555Z,18.37
2019-02-26T23:47:36.980Z,18.17
2019-02-26T23:50:04.403Z,18.33
2019-02-26T23:52:31.820Z,18.13
2019-02-26T23:54:59.225Z,18.60
2019-02-26T23:57:26.626Z,16.80
2019-02-26T23:59:54.060Z,17.87
